Time;durP1;ratioP1;P1;durP2;ratioP2;P2;SDS_P1;SDS_P2;PMS_P1;PMS_P2;Temp;Humidity;BMP_temperature;BMP_pressure;BME280_temperature;BME280_humidity;BME280_pressure;Samples;Min_cycle;Max_cycle;Signal;HPM_P1;HPM_P2
2021/09/10 00:09:38;;;;;;;20.7;15.4;;;;;;;9.95;100;98757.29;;;;
2021/09/10 00:19:36;;;;;;;18.9;15.5;;;;;;;9.83;100;98748.89;;;;
2021/09/10 00:29:35;;;;;;;16.2;12.8;;;;;;;9.64;100;98750.88;;;;
2021/09/10 00:39:34;;;;;;;18.5;14.4;;;;;;;9.56;100;98763.13;;;;
2021/09/10 00:49:32;;;;;;;16.2;11.6;;;;;;;9.34;100;98765.64;;;;
2021/09/10 00:59:31;;;;;;;28;14.1;;;;;;;9.17;100;98762.7;;;;
2021/09/10 01:09:30;;;;;;;14.9;12.8;;;;;;;9;100;98768.63;;;;
2021/09/10 01:19:28;;;;;;;17.3;10.8;;;;;;;8.83;100;98768.34;;;;
2021/09/10 01:29:27;;;;;;;19.1;12.9;;;;;;;8.75;100;98772.48;;;;
2021/09/10 01:39:26;;;;;;;15.9;14.2;;;;;;;8.69;100;98773.65;;;;
2021/09/10 01:49:24;;;;;;;14.4;12.9;;;;;;;8.82;100;98775.6;;;;
2021/09/10 01:59:23;;;;;;;16.6;12.1;;;;;;;8.63;100;98784.76;;;;
2021/09/10 02:09:22;;;;;;;13.4;10.2;;;;;;;8.53;100;98772.27;;;;
2021/09/10 02:19:21;;;;;;;13.8;11.6;;;;;;;8.32;100;98769.05;;;;
2021/09/10 02:29:19;;;;;;;20.5;13.2;;;;;;;8.26;100;98778.2;;;;
2021/09/10 02:39:18;;;;;;;19.4;13.5;;;;;;;8.14;100;98775.15;;;;
2021/09/10 02:49:16;;;;;;;12;9.2;;;;;;;8.03;100;98766.41;;;;
2021/09/10 02:59:15;;;;;;;12.8;9.7;;;;;;;7.94;100;98768.14;;;;
2021/09/10 03:09:14;;;;;;;12.6;9.4;;;;;;;8.04;100;98765.34;;;;
2021/09/10 03:19:13;;;;;;;11;7.7;;;;;;;7.99;100;98775.31;;;;
2021/09/10 03:29:11;;;;;;;12;8;;;;;;;7.81;100;98774.16;;;;
2021/09/10 03:39:09;;;;;;;6.9;5.9;;;;;;;7.69;100;98775.64;;;;
2021/09/10 03:49:08;;;;;;;8.6;7.4;;;;;;;7.57;100;98774.14;;;;
2021/09/10 03:59:06;;;;;;;11.8;8.7;;;;;;;7.47;100;98771.55;;;;
2021/09/10 04:09:05;;;;;;;15.4;8;;;;;;;7.41;100;98778.05;;;;
2021/09/10 04:19:03;;;;;;;13.4;9.2;;;;;;;7.36;100;98769.23;;;;
2021/09/10 04:29:02;;;;;;;10;8.4;;;;;;;7.55;100;98772.83;;;;
2021/09/10 04:39:01;;;;;;;12.9;9;;;;;;;7.63;100;98772.22;;;;
2021/09/10 04:48:59;;;;;;;12.9;8.7;;;;;;;7.84;100;98780.86;;;;
2021/09/10 04:58:58;;;;;;;16;11.8;;;;;;;8.1;100;98801.77;;;;
2021/09/10 05:08:56;;;;;;;15.1;10.1;;;;;;;8.48;100;98797.3;;;;
2021/09/10 05:18:55;;;;;;;12.7;9.9;;;;;;;8.88;100;98801.34;;;;
2021/09/10 05:28:53;;;;;;;18.7;12.7;;;;;;;9.36;100;98793.06;;;;
2021/09/10 05:38:52;;;;;;;20.8;14.6;;;;;;;9.67;100;98791.45;;;;
2021/09/10 05:48:51;;;;;;;20.3;13.2;;;;;;;10.24;100;98802.81;;;;
2021/09/10 05:58:50;;;;;;;13.5;12.1;;;;;;;10.75;100;98807.94;;;;
2021/09/10 06:08:49;;;;;;;17;13.4;;;;;;;11.36;100;98810.02;;;;
2021/09/10 06:18:47;;;;;;;22.6;13.9;;;;;;;12.01;100;98811.08;;;;
2021/09/10 06:28:47;;;;;;;16.9;13.5;;;;;;;12.65;100;98818.77;;;;
2021/09/10 06:38:46;;;;;;;19.6;12.1;;;;;;;13.2;100;98824.42;;;;
2021/09/10 06:48:45;;;;;;;18.8;11.9;;;;;;;13.82;100;98832.95;;;;
2021/09/10 06:58:44;;;;;;;17.5;12;;;;;;;14.39;100;98834.23;;;;
2021/09/10 07:08:43;;;;;;;11.9;10.2;;;;;;;15;100;98840.89;;;;
2021/09/10 07:18:43;;;;;;;15.5;10.7;;;;;;;15.68;100;98844.22;;;;
2021/09/10 07:28:42;;;;;;;18.6;11.3;;;;;;;16.32;100;98849.1;;;;
2021/09/10 07:38:42;;;;;;;16.8;10.7;;;;;;;16.87;100;98843.91;;;;
2021/09/10 07:48:42;;;;;;;23.6;9.9;;;;;;;17.43;100;98854.91;;;;
2021/09/10 07:58:41;;;;;;;19.9;7.7;;;;;;;18.01;100;98859.67;;;;
2021/09/10 08:08:41;;;;;;;12.6;9.3;;;;;;;18.6;100;98861.61;;;;
2021/09/10 08:18:41;;;;;;;8.9;4.8;;;;;;;19.15;100;98860.54;;;;
2021/09/10 08:28:41;;;;;;;9.1;4.8;;;;;;;19.52;100;98856.28;;;;
2021/09/10 08:38:41;;;;;;;7.3;5;;;;;;;20.04;100;98860.41;;;;
2021/09/10 08:48:41;;;;;;;8.3;4.5;;;;;;;20.24;100;98856.47;;;;
2021/09/10 08:58:41;;;;;;;8.4;4.9;;;;;;;20.5;100;98853.03;;;;
2021/09/10 09:08:43;;;;;;;7.4;4.5;;;;;;;20.85;100;98845.38;;;;
2021/09/10 09:18:47;;;;;;;8.1;4.6;;;;;;;21.34;100;98852.75;;;;
2021/09/10 09:28:42;;;;;;;8.8;5;;;;;;;21.89;100;98840.87;;;;
2021/09/10 09:38:42;;;;;;;4.9;2.3;;;;;;;22.31;83.96191;98843.27;;;;
2021/09/10 09:48:43;;;;;;;12.7;4.4;;;;;;;22.45;88.60156;98832.41;;;;
2021/09/10 09:58:44;;;;;;;6.6;2.6;;;;;;;22.55;79.79297;98833.66;;;;
2021/09/10 10:08:44;;;;;;;4.8;2.7;;;;;;;22.81;79.8623;98822.48;;;;
2021/09/10 10:18:44;;;;;;;4.6;2;;;;;;;22.75;74.58496;98821.27;;;;
2021/09/10 10:28:50;;;;;;;7.2;2.8;;;;;;;22.87;66.79199;98823.7;;;;
2021/09/10 10:39:15;;;;;;;4.8;2.5;;;;;;;23.03;67.56055;98809.67;;;;
2021/09/10 10:48:53;;;;;;;5.4;2.8;;;;;;;22.87;67.32715;98804.45;;;;
2021/09/10 10:58:46;;;;;;;5.9;3;;;;;;;23.18;64.47363;98805.04;;;;
2021/09/10 11:08:47;;;;;;;8.5;3.1;;;;;;;23.4;65.98633;98796.48;;;;
2021/09/10 11:18:47;;;;;;;6.7;3.3;;;;;;;23.16;57.55273;98786.16;;;;
2021/09/10 11:28:48;;;;;;;5.1;2.3;;;;;;;23.67;59.79102;98771.45;;;;
2021/09/10 11:38:48;;;;;;;6.9;3.8;;;;;;;23.81;59.37891;98763.98;;;;
2021/09/10 11:48:53;;;;;;;11.7;3.6;;;;;;;23.88;58.63867;98757.73;;;;
2021/09/10 11:58:50;;;;;;;5.8;2.9;;;;;;;24.17;61.81055;98736.52;;;;
2021/09/10 12:08:50;;;;;;;6.7;3.7;;;;;;;24.19;58.7832;98731.42;;;;
2021/09/10 12:18:51;;;;;;;4.6;3.2;;;;;;;23.83;59.19336;98720.36;;;;
2021/09/10 12:28:51;;;;;;;6.2;3.1;;;;;;;24.21;60.05078;98715.27;;;;
2021/09/10 12:38:52;;;;;;;5.2;3.2;;;;;;;24.32;58.12305;98708.58;;;;
2021/09/10 12:48:53;;;;;;;7.1;3.4;;;;;;;24.49;59.5498;98695.95;;;;
2021/09/10 12:58:54;;;;;;;5.2;3.2;;;;;;;24.5;58.0293;98684.52;;;;
2021/09/10 13:08:54;;;;;;;9.4;3.7;;;;;;;24.61;55.21875;98684.48;;;;
2021/09/10 13:18:55;;;;;;;6.1;2.5;;;;;;;24.71;54.70313;98678.19;;;;
2021/09/10 13:28:56;;;;;;;8.3;3.1;;;;;;;24.9;58.68945;98679.7;;;;
2021/09/10 13:38:57;;;;;;;4.1;2.2;;;;;;;24.89;54.58496;98670.64;;;;
2021/09/10 13:48:57;;;;;;;7.9;3.3;;;;;;;24.79;52.83496;98674.2;;;;
2021/09/10 13:58:58;;;;;;;5.5;3;;;;;;;25.15;53.72266;98668.56;;;;
2021/09/10 14:08:59;;;;;;;7;2.7;;;;;;;25.45;56.49609;98657.73;;;;
2021/09/10 14:19:00;;;;;;;4.8;2.9;;;;;;;25.62;51.79297;98667.89;;;;
2021/09/10 14:29:00;;;;;;;5.8;3;;;;;;;25.97;58.87598;98658.54;;;;
2021/09/10 14:39:01;;;;;;;13.2;3.5;;;;;;;25.76;56.1123;98662.27;;;;
2021/09/10 14:49:02;;;;;;;7.4;3.6;;;;;;;25.82;53.55566;98665.39;;;;
2021/09/10 14:59:06;;;;;;;8;3.3;;;;;;;25.94;53.61816;98664.88;;;;
2021/09/10 15:09:04;;;;;;;8.2;3.2;;;;;;;27.14;54.80957;98657.31;;;;
2021/09/10 15:19:05;;;;;;;9.8;3.6;;;;;;;29.17;51.42871;98661.7;;;;
2021/09/10 15:29:06;;;;;;;7.8;3.5;;;;;;;30.77;42.48438;98662.91;;;;
2021/09/10 15:39:07;;;;;;;7.9;3;;;;;;;31.35;46.77637;98658.02;;;;
2021/09/10 15:49:10;;;;;;;5.1;2.6;;;;;;;32.36;50.08203;98659.94;;;;
2021/09/10 15:59:11;;;;;;;7.2;3.5;;;;;;;31.98;39.37695;98643.28;;;;
2021/09/10 16:09:12;;;;;;;6.7;3.3;;;;;;;31.98;49.58691;98642.5;;;;
2021/09/10 16:19:14;;;;;;;9.2;4.5;;;;;;;31.79;48.46875;98639.55;;;;
2021/09/10 16:29:16;;;;;;;6.3;3.1;;;;;;;29.76;53.92969;98634.56;;;;
2021/09/10 16:39:18;;;;;;;11.2;4.3;;;;;;;26.27;66.13672;98627.52;;;;
2021/09/10 16:49:18;;;;;;;13.8;5.1;;;;;;;24.09;74.29297;98622.03;;;;
2021/09/10 16:59:19;;;;;;;17.3;7.5;;;;;;;22.39;84.69434;98625.18;;;;
2021/09/10 17:09:20;;;;;;;15.8;7.9;;;;;;;20.93;98.26758;98619.63;;;;
2021/09/10 17:19:20;;;;;;;47.8;34.6;;;;;;;20.01;100;98626.63;;;;
2021/09/10 17:29:20;;;;;;;34.5;26.1;;;;;;;19.08;100;98637.16;;;;
2021/09/10 17:39:20;;;;;;;71.6;50.7;;;;;;;18.56;100;98645.88;;;;
2021/09/10 17:49:20;;;;;;;54.3;35;;;;;;;18.12;100;98654.61;;;;
2021/09/10 17:59:20;;;;;;;34.9;25.6;;;;;;;17.85;100;98651.64;;;;
2021/09/10 18:09:20;;;;;;;81.4;65.6;;;;;;;17.04;100;98669.38;;;;
2021/09/10 18:19:20;;;;;;;47.1;36.4;;;;;;;16.49;100;98677.48;;;;
2021/09/10 18:29:19;;;;;;;60.2;44.4;;;;;;;16.08;100;98694.88;;;;
2021/09/10 18:39:19;;;;;;;42.8;30.5;;;;;;;15.69;100;98690.9;;;;
2021/09/10 18:49:20;;;;;;;41.6;30.7;;;;;;;15.33;100;98694.33;;;;
2021/09/10 18:59:18;;;;;;;31.8;27;;;;;;;15.07;100;98700.01;;;;
2021/09/10 19:09:17;;;;;;;28.1;25.1;;;;;;;14.71;100;98696.35;;;;
2021/09/10 19:19:17;;;;;;;30.5;27.2;;;;;;;14.39;100;98692.44;;;;
2021/09/10 19:29:16;;;;;;;21.4;19.1;;;;;;;14.13;100;98692.55;;;;
2021/09/10 19:39:15;;;;;;;36.8;26.7;;;;;;;13.83;100;98707.22;;;;
2021/09/10 19:49:15;;;;;;;22.7;17.2;;;;;;;13.56;100;98708.45;;;;
2021/09/10 19:59:14;;;;;;;70.9;63.5;;;;;;;13.43;100;98707.51;;;;
2021/09/10 20:09:13;;;;;;;41.4;27.1;;;;;;;13.38;100;98696.07;;;;
2021/09/10 20:19:12;;;;;;;34.3;28.1;;;;;;;13.24;100;98706.3;;;;
2021/09/10 20:29:11;;;;;;;40.3;35.9;;;;;;;13.32;100;98710.91;;;;
2021/09/10 20:39:11;;;;;;;35.8;28.9;;;;;;;13.13;100;98715.86;;;;
2021/09/10 20:49:10;;;;;;;21.8;15.5;;;;;;;12.92;100;98721.9;;;;
2021/09/10 20:59:09;;;;;;;16.9;14.7;;;;;;;12.73;100;98728.75;;;;
2021/09/10 21:09:08;;;;;;;15.6;12.3;;;;;;;12.57;100;98728.41;;;;
2021/09/10 21:19:07;;;;;;;11.9;10.7;;;;;;;12.39;100;98732.22;;;;
2021/09/10 21:29:06;;;;;;;17.4;11.1;;;;;;;12.21;100;98736.79;;;;
2021/09/10 21:39:05;;;;;;;13.5;9.2;;;;;;;12.06;100;98732.61;;;;
2021/09/10 21:49:04;;;;;;;12.3;10.4;;;;;;;11.97;100;98725.59;;;;
2021/09/10 21:59:04;;;;;;;11.1;9.4;;;;;;;11.94;100;98726.22;;;;
2021/09/10 22:09:03;;;;;;;18.4;11.1;;;;;;;11.97;100;98736.39;;;;
2021/09/10 22:19:02;;;;;;;10.3;7.5;;;;;;;11.8;100;98731.7;;;;
2021/09/10 22:29:01;;;;;;;9.8;7.5;;;;;;;11.64;100;98741.3;;;;
2021/09/10 22:39:00;;;;;;;12.7;8.2;;;;;;;11.4;100;98738.95;;;;
2021/09/10 22:48:58;;;;;;;12.1;8.7;;;;;;;11.2;100;98744.86;;;;
2021/09/10 22:58:57;;;;;;;10.5;7.9;;;;;;;11.01;100;98730.75;;;;
2021/09/10 23:08:56;;;;;;;12.3;6.6;;;;;;;10.84;100;98746.8;;;;
2021/09/10 23:18:55;;;;;;;22.2;10.3;;;;;;;10.78;100;98740.73;;;;
2021/09/10 23:28:54;;;;;;;10.3;9.3;;;;;;;10.75;100;98738.65;;;;
2021/09/10 23:38:53;;;;;;;14.8;10.7;;;;;;;10.69;100;98729.06;;;;
2021/09/10 23:48:52;;;;;;;13.1;10.2;;;;;;;10.45;100;98732.02;;;;
2021/09/10 23:58:50;;;;;;;17.8;11.3;;;;;;;10.3;100;98728.88;;;;
